Time;durP1;ratioP1;P1;durP2;ratioP2;P2;SDS_P1;SDS_P2;PMS_P1;PMS_P2;Temp;Humidity;BMP_temperature;BMP_pressure;BME280_temperature;BME280_humidity;BME280_pressure;Samples;Min_cycle;Max_cycle;Signal;HPM_P1;HPM_P2
2023/01/27 00:00:57;;;;;;;13.50;2.08;;;;;;;;;;5053153;28;20025;-59
2023/01/27 00:03:23;;;;;;;16.42;2.67;;;;;;;;;;5053296;28;20048;-59
2023/01/27 00:05:50;;;;;;;6.35;2.10;;;;;;;;;;5053297;28;20033;-59
2023/01/27 00:08:16;;;;;;;14.57;2.40;;;;;;;;;;5052940;28;20037;-59
2023/01/27 00:10:42;;;;;;;7.88;2.13;;;;;;;;;;5053152;28;20033;-59
2023/01/27 00:13:27;;;;;;;5.57;1.80;;;;;;;;;;5052620;28;20025;-59
2023/01/27 00:15:53;;;;;;;10.18;1.98;;;;;;;;;;5056444;28;20028;-59
2023/01/27 00:18:19;;;;;;;13.13;3.45;;;;;;;;;;5072738;28;20036;-59
2023/01/27 00:26:26;;;;;;;13.10;3.55;;;;;;;;;;5015656;28;20048;-59
2023/01/27 00:28:52;;;;;;;17.25;3.42;;;;;;;;;;4991352;28;20030;-59
2023/01/27 00:34:10;;;;;;;15.32;2.53;;;;;;;;;;5019377;28;20034;-59
2023/01/27 00:36:39;;;;;;;12.45;2.65;;;;;;;;;;4990981;28;20046;-59
2023/01/27 00:39:05;;;;;;;15.23;3.30;;;;;;;;;;4991084;28;20045;-59
2023/01/27 00:41:32;;;;;;;20.85;2.90;;;;;;;;;;4990464;28;20126;-59
2023/01/27 00:43:59;;;;;;;8.38;2.47;;;;;;;;;;4991050;28;20039;-59
2023/01/27 00:46:25;;;;;;;20.05;2.80;;;;;;;;;;4997846;28;20423;-59
2023/01/27 00:48:51;;;;;;;11.55;2.17;;;;;;;;;;5023124;28;20030;-59
2023/01/27 00:51:18;;;;;;;15.20;2.78;;;;;;;;;;5009519;28;20041;-59
2023/01/27 00:53:44;;;;;;;11.52;1.85;;;;;;;;;;5023925;28;20157;-59
2023/01/27 00:56:10;;;;;;;7.35;2.00;;;;;;;;;;5003786;28;20064;-59
2023/01/27 00:58:37;;;;;;;7.28;1.70;;;;;;;;;;4995446;28;20561;-59
2023/01/27 01:01:04;;;;;;;11.40;1.67;;;;;;;;;;5026755;28;20022;-59
2023/01/27 01:03:31;;;;;;;12.18;2.53;;;;;;;;;;5050148;28;20391;-59
2023/01/27 01:05:58;;;;;;;11.25;1.75;;;;;;;;;;5072251;28;20024;-59
2023/01/27 01:08:24;;;;;;;7.07;2.03;;;;;;;;;;5068582;28;20021;-59
2023/01/27 01:10:51;;;;;;;8.50;1.90;;;;;;;;;;5051678;28;20048;-59
2023/01/27 01:13:18;;;;;;;7.68;1.70;;;;;;;;;;5051903;28;20569;-59
2023/01/27 01:15:44;;;;;;;12.90;1.80;;;;;;;;;;5054303;28;20025;-59
2023/01/27 01:18:11;;;;;;;5.93;1.83;;;;;;;;;;5070591;28;20031;-59
2023/01/27 01:20:38;;;;;;;11.00;1.75;;;;;;;;;;5070856;28;20486;-59
2023/01/27 01:23:08;;;;;;;13.00;1.75;;;;;;;;;;5071869;28;20034;-59
2023/01/27 01:25:34;;;;;;;10.73;2.33;;;;;;;;;;5071787;28;20465;-59
2023/01/27 01:28:02;;;;;;;12.38;2.40;;;;;;;;;;5065511;28;20029;-59
2023/01/27 01:30:28;;;;;;;9.40;2.00;;;;;;;;;;5076107;28;20024;-59
2023/01/27 01:32:55;;;;;;;8.88;1.92;;;;;;;;;;5086173;28;20032;-59
2023/01/27 01:35:23;;;;;;;7.72;1.60;;;;;;;;;;5091891;28;20405;-59
2023/01/27 01:37:49;;;;;;;6.45;2.00;;;;;;;;;;5092056;28;20470;-59
2023/01/27 01:40:15;;;;;;;7.68;2.38;;;;;;;;;;5090274;28;20126;-59
2023/01/27 01:43:00;;;;;;;8.68;3.03;;;;;;;;;;5090859;28;20110;-59
2023/01/27 01:45:34;;;;;;;11.85;2.30;;;;;;;;;;5090698;28;20036;-59
2023/01/27 01:48:02;;;;;;;13.00;2.15;;;;;;;;;;5092185;28;20036;-59
2023/01/27 01:50:29;;;;;;;13.75;3.47;;;;;;;;;;5090445;28;20442;-59
2023/01/27 01:52:56;;;;;;;13.63;2.33;;;;;;;;;;5092594;28;20500;-59
2023/01/27 01:55:23;;;;;;;9.90;2.25;;;;;;;;;;5086199;28;20029;-59
2023/01/27 01:57:49;;;;;;;7.72;1.80;;;;;;;;;;5074508;28;20082;-59
2023/01/27 02:00:16;;;;;;;14.05;1.80;;;;;;;;;;5094453;28;20020;-59
2023/01/27 02:02:45;;;;;;;10.80;2.53;;;;;;;;;;5094526;28;20035;-59
2023/01/27 02:05:21;;;;;;;10.50;2.05;;;;;;;;;;5094500;28;20405;-59
2023/01/27 02:07:51;;;;;;;5.78;1.73;;;;;;;;;;5095493;28;20071;-59
2023/01/27 02:10:17;;;;;;;12.80;4.10;;;;;;;;;;5095682;28;20505;-59
2023/01/27 02:12:44;;;;;;;7.63;2.40;;;;;;;;;;5095686;28;20028;-59
2023/01/27 02:15:11;;;;;;;10.23;1.88;;;;;;;;;;5095504;28;20555;-59
2023/01/27 02:17:37;;;;;;;11.77;2.58;;;;;;;;;;5077057;28;20444;-59
2023/01/27 02:20:09;;;;;;;14.82;1.70;;;;;;;;;;5075138;28;20127;-59
2023/01/27 02:22:39;;;;;;;12.95;2.33;;;;;;;;;;5074778;28;20024;-59
2023/01/27 02:25:14;;;;;;;12.00;2.45;;;;;;;;;;5074033;28;20040;-59
2023/01/27 02:27:41;;;;;;;9.88;2.17;;;;;;;;;;5062310;28;20032;-59
2023/01/27 02:30:08;;;;;;;9.65;1.80;;;;;;;;;;5054842;28;20514;-59
2023/01/27 02:32:34;;;;;;;9.77;2.85;;;;;;;;;;5055012;28;20036;-59
2023/01/27 02:35:01;;;;;;;11.07;1.67;;;;;;;;;;5055268;28;20074;-59
2023/01/27 02:37:28;;;;;;;8.18;2.22;;;;;;;;;;5052855;28;20055;-59
2023/01/27 02:39:55;;;;;;;9.90;2.03;;;;;;;;;;5060910;28;20023;-59
2023/01/27 02:42:22;;;;;;;13.88;1.83;;;;;;;;;;5073321;28;20021;-59
2023/01/27 02:44:49;;;;;;;3.65;1.42;;;;;;;;;;5074787;28;20020;-59
2023/01/27 02:47:15;;;;;;;4.93;1.48;;;;;;;;;;5073499;28;20493;-59
2023/01/27 02:49:41;;;;;;;2.85;1.25;;;;;;;;;;5073392;28;20402;-59
2023/01/27 02:52:08;;;;;;;9.20;1.83;;;;;;;;;;5072997;28;20060;-59
2023/01/27 02:54:34;;;;;;;4.43;1.20;;;;;;;;;;5086216;28;20035;-59
2023/01/27 02:57:01;;;;;;;9.13;1.38;;;;;;;;;;5088139;28;20021;-59
2023/01/27 02:59:29;;;;;;;6.43;1.15;;;;;;;;;;5073078;28;20044;-59
2023/01/27 03:01:56;;;;;;;4.20;1.40;;;;;;;;;;5073145;28;20021;-59
2023/01/27 03:04:22;;;;;;;5.45;1.50;;;;;;;;;;5072677;28;20545;-59
2023/01/27 03:06:48;;;;;;;6.38;1.50;;;;;;;;;;5075889;28;20063;-59
2023/01/27 03:09:14;;;;;;;9.10;1.48;;;;;;;;;;5077739;28;20039;-59
2023/01/27 03:19:56;;;;;;;5.65;1.58;;;;;;;;;;5072475;28;20498;-59
2023/01/27 03:22:22;;;;;;;8.10;1.70;;;;;;;;;;5072620;28;20402;-59
2023/01/27 03:24:48;;;;;;;7.43;2.10;;;;;;;;;;5065757;28;20028;-59
2023/01/27 03:27:14;;;;;;;13.68;1.65;;;;;;;;;;5052758;28;20017;-59
2023/01/27 03:30:01;;;;;;;4.32;1.15;;;;;;;;;;5053723;28;20045;-59
2023/01/27 03:32:30;;;;;;;10.88;1.30;;;;;;;;;;5086180;28;20025;-59
2023/01/27 03:35:17;;;;;;;15.93;1.65;;;;;;;;;;5053385;28;20122;-59
2023/01/27 03:46:19;;;;;;;5.32;1.45;;;;;;;;;;5052626;28;20440;-59
2023/01/27 03:48:53;;;;;;;7.57;1.27;;;;;;;;;;5053478;28;20490;-59
2023/01/27 03:51:20;;;;;;;3.20;1.10;;;;;;;;;;5054091;28;20033;-59
2023/01/27 03:53:46;;;;;;;5.22;1.50;;;;;;;;;;5093702;28;20055;-59
2023/01/27 03:56:13;;;;;;;5.65;1.15;;;;;;;;;;5093641;28;20054;-59
2023/01/27 03:58:39;;;;;;;5.25;1.10;;;;;;;;;;5083208;28;20020;-59
2023/01/27 04:01:11;;;;;;;5.05;0.95;;;;;;;;;;5064669;28;20146;-59
2023/01/27 04:09:09;;;;;;;6.18;1.23;;;;;;;;;;5055951;28;20515;-59
2023/01/27 04:11:53;;;;;;;5.18;1.20;;;;;;;;;;5053300;28;20027;-59
2023/01/27 04:14:20;;;;;;;7.32;1.35;;;;;;;;;;5052911;28;20025;-59
2023/01/27 04:16:46;;;;;;;2.65;0.90;;;;;;;;;;5063038;28;20226;-59
2023/01/27 04:19:13;;;;;;;7.20;1.20;;;;;;;;;;5060296;28;20036;-59
2023/01/27 04:21:39;;;;;;;5.43;1.17;;;;;;;;;;5052823;28;20478;-59
2023/01/27 04:24:07;;;;;;;6.63;1.13;;;;;;;;;;5053050;28;20025;-59
2023/01/27 04:26:34;;;;;;;6.82;1.00;;;;;;;;;;5052576;28;20394;-59
2023/01/27 04:29:01;;;;;;;5.05;1.30;;;;;;;;;;5068090;28;20123;-59
2023/01/27 04:31:27;;;;;;;4.38;1.10;;;;;;;;;;5060169;28;20103;-59
2023/01/27 04:33:53;;;;;;;8.60;1.50;;;;;;;;;;5058740;28;20089;-59
2023/01/27 04:36:20;;;;;;;3.80;1.02;;;;;;;;;;5092652;28;20035;-59
2023/01/27 04:38:46;;;;;;;5.82;1.42;;;;;;;;;;5092715;28;20102;-59
2023/01/27 04:41:12;;;;;;;2.25;1.00;;;;;;;;;;5091790;28;20027;-59
2023/01/27 04:43:38;;;;;;;9.02;1.50;;;;;;;;;;5092626;28;20035;-59
2023/01/27 04:46:04;;;;;;;5.32;1.38;;;;;;;;;;5092708;28;20390;-59
2023/01/27 04:48:30;;;;;;;5.90;1.67;;;;;;;;;;5092397;28;20073;-59
2023/01/27 04:50:56;;;;;;;6.13;1.25;;;;;;;;;;5072198;28;20103;-59
2023/01/27 04:53:23;;;;;;;7.13;2.22;;;;;;;;;;5052648;28;20029;-59
2023/01/27 04:55:49;;;;;;;3.28;1.10;;;;;;;;;;5052211;28;20021;-59
2023/01/27 04:58:17;;;;;;;5.95;1.65;;;;;;;;;;5057564;28;20095;-59
2023/01/27 05:00:45;;;;;;;6.47;1.40;;;;;;;;;;5071654;28;20107;-59
2023/01/27 05:03:12;;;;;;;6.65;1.27;;;;;;;;;;5072109;28;20028;-59
2023/01/27 05:05:38;;;;;;;10.73;1.98;;;;;;;;;;5086869;28;20047;-59
2023/01/27 05:08:05;;;;;;;15.13;2.38;;;;;;;;;;5092561;28;20031;-59
2023/01/27 05:10:31;;;;;;;4.68;1.00;;;;;;;;;;5092324;28;20081;-59
2023/01/27 05:12:58;;;;;;;7.07;1.58;;;;;;;;;;5087541;28;20027;-59
2023/01/27 05:15:24;;;;;;;7.90;2.15;;;;;;;;;;5072041;28;20028;-59
2023/01/27 05:17:50;;;;;;;8.25;2.17;;;;;;;;;;5064636;28;20024;-59
2023/01/27 05:20:17;;;;;;;8.73;2.70;;;;;;;;;;5052039;28;20099;-59
2023/01/27 05:22:43;;;;;;;6.35;2.38;;;;;;;;;;5074204;28;20115;-59
2023/01/27 05:25:09;;;;;;;6.68;2.25;;;;;;;;;;5058298;28;20025;-59
2023/01/27 05:27:35;;;;;;;5.63;2.22;;;;;;;;;;5067341;28;20111;-59
2023/01/27 05:30:01;;;;;;;9.55;2.72;;;;;;;;;;5070369;28;20033;-59
2023/01/27 05:32:27;;;;;;;5.18;1.70;;;;;;;;;;5088125;28;20032;-59
2023/01/27 05:34:53;;;;;;;4.20;2.38;;;;;;;;;;5074365;28;20066;-59
2023/01/27 05:37:20;;;;;;;5.82;2.20;;;;;;;;;;5073729;28;20495;-59
2023/01/27 05:39:46;;;;;;;6.72;2.28;;;;;;;;;;5073903;28;20111;-59
2023/01/27 05:42:12;;;;;;;6.97;2.50;;;;;;;;;;5074315;28;20062;-59
2023/01/27 05:44:38;;;;;;;7.88;2.10;;;;;;;;;;5075317;28;20383;-59
2023/01/27 05:47:05;;;;;;;7.55;2.58;;;;;;;;;;5074197;28;20021;-59
2023/01/27 05:49:32;;;;;;;7.07;2.60;;;;;;;;;;5074401;28;20016;-59
2023/01/27 05:51:58;;;;;;;11.02;2.22;;;;;;;;;;5071651;28;20520;-59
2023/01/27 05:54:24;;;;;;;9.32;1.80;;;;;;;;;;5074218;28;20043;-59
2023/01/27 05:56:50;;;;;;;10.55;1.98;;;;;;;;;;5075706;28;20031;-59
2023/01/27 05:59:16;;;;;;;7.57;2.40;;;;;;;;;;5075490;28;20033;-59
2023/01/27 06:01:42;;;;;;;4.63;2.38;;;;;;;;;;5071648;28;20033;-59
2023/01/27 06:04:09;;;;;;;7.50;3.28;;;;;;;;;;5083992;28;20480;-59
2023/01/27 06:06:35;;;;;;;7.18;2.33;;;;;;;;;;5077661;28;20070;-60
2023/01/27 06:09:01;;;;;;;9.98;2.63;;;;;;;;;;5074955;28;20113;-60
2023/01/27 06:11:28;;;;;;;9.13;2.40;;;;;;;;;;5072746;28;20025;-60
2023/01/27 06:13:54;;;;;;;9.45;2.88;;;;;;;;;;5068645;28;20024;-60
2023/01/27 06:16:21;;;;;;;7.28;3.38;;;;;;;;;;5068036;28;20077;-60
2023/01/27 06:18:47;;;;;;;7.28;2.60;;;;;;;;;;5069090;28;20122;-60
2023/01/27 06:21:14;;;;;;;7.78;2.95;;;;;;;;;;5070116;28;20043;-60
2023/01/27 06:23:41;;;;;;;8.73;2.88;;;;;;;;;;5070845;28;20017;-60
2023/01/27 06:26:11;;;;;;;5.97;2.22;;;;;;;;;;5064916;28;20449;-60
2023/01/27 06:28:37;;;;;;;8.15;2.83;;;;;;;;;;5073237;28;20067;-60
2023/01/27 06:31:07;;;;;;;6.18;2.35;;;;;;;;;;5074507;28;20029;-60
2023/01/27 06:33:34;;;;;;;4.95;2.30;;;;;;;;;;5074791;28;20035;-60
2023/01/27 06:36:01;;;;;;;10.52;2.95;;;;;;;;;;5082969;28;20123;-60
2023/01/27 06:38:27;;;;;;;5.80;2.42;;;;;;;;;;5071045;28;20433;-60
2023/01/27 06:40:53;;;;;;;5.88;2.25;;;;;;;;;;5082471;28;20116;-60
2023/01/27 06:43:19;;;;;;;7.20;2.47;;;;;;;;;;5089848;28;20121;-60
2023/01/27 06:45:48;;;;;;;4.85;2.10;;;;;;;;;;5052793;28;20013;-61
2023/01/27 06:48:14;;;;;;;7.00;2.28;;;;;;;;;;5055488;28;20692;-60
2023/01/27 06:50:41;;;;;;;5.60;2.10;;;;;;;;;;5080896;28;20020;-60
2023/01/27 06:53:08;;;;;;;9.90;2.70;;;;;;;;;;5070186;28;20047;-60
2023/01/27 06:55:35;;;;;;;6.60;2.28;;;;;;;;;;5072238;28;20028;-60
2023/01/27 06:58:02;;;;;;;7.75;2.53;;;;;;;;;;5071654;28;20083;-61
2023/01/27 07:00:28;;;;;;;7.55;2.35;;;;;;;;;;5068624;28;20044;-60
2023/01/27 07:02:55;;;;;;;8.40;1.80;;;;;;;;;;5067272;28;20025;-61
2023/01/27 07:05:21;;;;;;;4.45;2.17;;;;;;;;;;5071158;28;20033;-61
2023/01/27 07:07:47;;;;;;;6.75;2.05;;;;;;;;;;5076787;28;20437;-61
2023/01/27 07:10:13;;;;;;;5.15;1.58;;;;;;;;;;5072863;28;20115;-60
2023/01/27 07:12:39;;;;;;;9.82;2.30;;;;;;;;;;5070593;28;20025;-60
2023/01/27 07:15:06;;;;;;;7.97;1.67;;;;;;;;;;5065668;28;20390;-61
2023/01/27 07:17:33;;;;;;;3.80;1.63;;;;;;;;;;5071314;28;20063;-61
2023/01/27 07:19:59;;;;;;;2.45;1.38;;;;;;;;;;5084833;28;20054;-60
2023/01/27 07:22:25;;;;;;;3.50;1.30;;;;;;;;;;5073021;28;20017;-60
2023/01/27 07:24:53;;;;;;;4.63;1.70;;;;;;;;;;5072596;28;20037;-61
2023/01/27 07:27:19;;;;;;;3.47;1.42;;;;;;;;;;5072671;28;20055;-60
2023/01/27 07:29:45;;;;;;;4.10;1.60;;;;;;;;;;5070120;28;20063;-60
2023/01/27 07:32:11;;;;;;;7.55;1.98;;;;;;;;;;5066788;28;20024;-60
2023/01/27 07:34:37;;;;;;;9.82;2.08;;;;;;;;;;5059205;28;20504;-60
2023/01/27 07:37:04;;;;;;;8.77;1.45;;;;;;;;;;5060809;28;20037;-60
2023/01/27 07:39:30;;;;;;;6.47;1.92;;;;;;;;;;5066446;28;20316;-60
2023/01/27 07:41:57;;;;;;;3.17;1.38;;;;;;;;;;5065589;28;20031;-60
2023/01/27 07:44:24;;;;;;;3.95;2.00;;;;;;;;;;5065984;28;20349;-60
2023/01/27 07:46:50;;;;;;;3.10;1.40;;;;;;;;;;5059489;28;20016;-60
2023/01/27 07:49:16;;;;;;;6.18;1.58;;;;;;;;;;5068243;28;20528;-60
2023/01/27 07:51:42;;;;;;;6.20;1.83;;;;;;;;;;5066261;28;20028;-60
2023/01/27 07:54:08;;;;;;;5.50;1.75;;;;;;;;;;5064159;28;20520;-60
2023/01/27 07:56:35;;;;;;;9.18;1.90;;;;;;;;;;5064986;28;20020;-60
2023/01/27 07:59:02;;;;;;;6.63;1.70;;;;;;;;;;5068635;28;20020;-60
2023/01/27 08:01:28;;;;;;;5.95;1.45;;;;;;;;;;5067586;28;20021;-60
2023/01/27 08:03:54;;;;;;;5.22;1.48;;;;;;;;;;5060742;28;20545;-60
2023/01/27 08:06:20;;;;;;;7.90;2.08;;;;;;;;;;5069704;28;20025;-60
2023/01/27 08:08:47;;;;;;;7.95;1.65;;;;;;;;;;5068795;28;20032;-60
2023/01/27 08:11:14;;;;;;;17.40;2.00;;;;;;;;;;5063017;28;20033;-60
2023/01/27 08:13:41;;;;;;;6.38;1.83;;;;;;;;;;5062309;28;20107;-60
2023/01/27 08:16:07;;;;;;;6.53;1.90;;;;;;;;;;5066640;28;20024;-60
2023/01/27 08:18:34;;;;;;;9.13;2.35;;;;;;;;;;5067509;28;20552;-60
2023/01/27 08:21:01;;;;;;;9.90;2.03;;;;;;;;;;5067690;28;20029;-60
2023/01/27 08:23:27;;;;;;;5.38;1.70;;;;;;;;;;5070023;28;20028;-60
2023/01/27 08:25:55;;;;;;;9.07;1.70;;;;;;;;;;5062866;28;20079;-60
2023/01/27 08:28:21;;;;;;;7.90;1.60;;;;;;;;;;5069280;28;20039;-60
2023/01/27 08:30:50;;;;;;;10.55;1.65;;;;;;;;;;5064341;28;20036;-60
2023/01/27 08:33:17;;;;;;;8.15;1.90;;;;;;;;;;5063766;28;20028;-60
2023/01/27 08:35:44;;;;;;;9.88;1.88;;;;;;;;;;5068099;28;20402;-60
2023/01/27 08:38:11;;;;;;;4.85;1.17;;;;;;;;;;5065844;28;20028;-60
2023/01/27 08:40:38;;;;;;;5.18;1.55;;;;;;;;;;5066144;28;20028;-60
2023/01/27 08:43:04;;;;;;;3.63;1.33;;;;;;;;;;5055669;28;20031;-60
2023/01/27 08:45:30;;;;;;;8.27;1.80;;;;;;;;;;5060175;28;20024;-60
2023/01/27 08:47:57;;;;;;;2.35;1.10;;;;;;;;;;5067563;28;20035;-60
2023/01/27 08:50:23;;;;;;;8.55;1.60;;;;;;;;;;5067998;28;20024;-60
2023/01/27 08:52:49;;;;;;;5.85;1.42;;;;;;;;;;5060507;28;20060;-60
2023/01/27 08:55:15;;;;;;;6.22;1.40;;;;;;;;;;5069105;28;20016;-60
2023/01/27 08:57:42;;;;;;;6.32;1.40;;;;;;;;;;5069998;28;20482;-60
2023/01/27 09:00:11;;;;;;;7.15;1.27;;;;;;;;;;5066734;28;20020;-60
2023/01/27 09:02:37;;;;;;;3.15;1.25;;;;;;;;;;5059949;28;20025;-60
2023/01/27 09:05:04;;;;;;;3.22;0.85;;;;;;;;;;5060965;28;20443;-60
2023/01/27 09:07:30;;;;;;;1.77;0.70;;;;;;;;;;5054292;28;20116;-60
2023/01/27 09:09:56;;;;;;;4.65;0.98;;;;;;;;;;5069893;28;20036;-60
2023/01/27 09:12:22;;;;;;;1.75;0.88;;;;;;;;;;5064909;28;20480;-60
2023/01/27 09:14:48;;;;;;;5.07;0.80;;;;;;;;;;5061091;28;20075;-60
2023/01/27 09:17:18;;;;;;;5.88;1.10;;;;;;;;;;5066697;28;20563;-60
2023/01/27 09:19:44;;;;;;;2.28;0.80;;;;;;;;;;5068071;28;20031;-60
2023/01/27 09:22:10;;;;;;;3.80;1.42;;;;;;;;;;5063089;28;20075;-60
2023/01/27 09:24:36;;;;;;;9.13;1.40;;;;;;;;;;5065193;28;20390;-60
2023/01/27 09:27:03;;;;;;;4.32;0.82;;;;;;;;;;5068949;28;20074;-60
2023/01/27 09:29:29;;;;;;;8.48;1.13;;;;;;;;;;5064329;28;20050;-60
2023/01/27 09:31:56;;;;;;;3.22;0.85;;;;;;;;;;5070470;28;20028;-60
2023/01/27 09:34:22;;;;;;;7.57;1.38;;;;;;;;;;5059135;28;20561;-60
2023/01/27 09:36:51;;;;;;;6.20;1.27;;;;;;;;;;5063888;28;20044;-60
2023/01/27 09:39:18;;;;;;;4.43;1.33;;;;;;;;;;5071242;28;20127;-60
2023/01/27 09:42:03;;;;;;;7.72;1.27;;;;;;;;;;5060338;28;20033;-60
2023/01/27 09:44:35;;;;;;;4.05;1.40;;;;;;;;;;5069275;28;20493;-60
2023/01/27 09:47:01;;;;;;;4.80;1.17;;;;;;;;;;5069196;28;20028;-60
2023/01/27 09:49:36;;;;;;;3.53;1.33;;;;;;;;;;5064878;28;20025;-60
2023/01/27 09:52:21;;;;;;;4.53;1.40;;;;;;;;;;5060843;28;20025;-60
2023/01/27 09:54:59;;;;;;;3.42;1.20;;;;;;;;;;5066285;28;20099;-60
2023/01/27 09:57:44;;;;;;;6.30;1.58;;;;;;;;;;5066582;28;20517;-60
2023/01/27 10:00:37;;;;;;;6.82;1.40;;;;;;;;;;5062732;28;20079;-60
2023/01/27 10:03:12;;;;;;;5.45;1.45;;;;;;;;;;5064956;28;20595;-60
2023/01/27 10:05:41;;;;;;;6.90;1.50;;;;;;;;;;5064839;28;20534;-60
2023/01/27 10:08:20;;;;;;;12.35;1.48;;;;;;;;;;5062622;28;20060;-60
2023/01/27 10:11:24;;;;;;;3.20;1.45;;;;;;;;;;5064249;28;20408;-60
2023/01/27 10:13:50;;;;;;;8.13;1.67;;;;;;;;;;5017407;28;20484;-60
2023/01/27 10:16:19;;;;;;;7.15;2.40;;;;;;;;;;5021222;28;20026;-60
2023/01/27 10:18:53;;;;;;;4.22;2.22;;;;;;;;;;5021330;28;20034;-60
2023/01/27 10:21:24;;;;;;;9.98;2.65;;;;;;;;;;5021403;28;20040;-60
2023/01/27 10:23:54;;;;;;;7.10;3.08;;;;;;;;;;5028458;28;20063;-60
2023/01/27 10:26:39;;;;;;;4.97;2.20;;;;;;;;;;5022924;28;20045;-60
2023/01/27 10:29:09;;;;;;;9.02;1.88;;;;;;;;;;5022524;28;20021;-60
2023/01/27 10:31:52;;;;;;;6.90;1.50;;;;;;;;;;5023640;28;20029;-60
2023/01/27 10:34:32;;;;;;;3.47;1.70;;;;;;;;;;5019967;28;20034;-60
2023/01/27 10:37:05;;;;;;;2.53;1.30;;;;;;;;;;5023133;28;20046;-60
2023/01/27 10:39:31;;;;;;;9.15;1.52;;;;;;;;;;5025791;28;20519;-60
2023/01/27 10:42:09;;;;;;;5.65;1.13;;;;;;;;;;5017700;28;20434;-60
2023/01/27 10:44:38;;;;;;;8.43;1.30;;;;;;;;;;5034663;28;20094;-60
2023/01/27 10:47:04;;;;;;;4.35;1.00;;;;;;;;;;5062475;28;20103;-60
2023/01/27 10:49:35;;;;;;;3.22;1.00;;;;;;;;;;5058554;28;20054;-60
2023/01/27 10:52:05;;;;;;;3.92;1.02;;;;;;;;;;5061839;28;20033;-60
2023/01/27 10:54:38;;;;;;;4.25;1.20;;;;;;;;;;5058644;28;20383;-60
2023/01/27 10:57:11;;;;;;;1.58;0.88;;;;;;;;;;5064811;28;20394;-60
2023/01/27 10:59:37;;;;;;;2.25;1.10;;;;;;;;;;5058462;28;20024;-60
2023/01/27 11:02:17;;;;;;;5.63;1.02;;;;;;;;;;5063676;28;20093;-60
2023/01/27 11:04:46;;;;;;;1.90;0.85;;;;;;;;;;5060423;28;20040;-60
2023/01/27 11:07:16;;;;;;;4.30;1.00;;;;;;;;;;5060074;28;20037;-60
2023/01/27 11:09:54;;;;;;;3.13;1.17;;;;;;;;;;5070899;28;20174;-60
2023/01/27 11:12:28;;;;;;;6.18;1.20;;;;;;;;;;5062417;28;20115;-60
2023/01/27 11:14:55;;;;;;;7.97;1.17;;;;;;;;;;5057048;28;20033;-60
2023/01/27 11:17:30;;;;;;;3.80;1.00;;;;;;;;;;5076136;28;20023;-60
2023/01/27 11:20:00;;;;;;;3.15;1.20;;;;;;;;;;5078212;28;20025;-60
2023/01/27 11:22:29;;;;;;;2.85;1.02;;;;;;;;;;5066168;28;20016;-60
2023/01/27 11:24:55;;;;;;;3.80;1.10;;;;;;;;;;5068661;28;20445;-60
2023/01/27 11:27:27;;;;;;;4.60;1.05;;;;;;;;;;5061862;28;20482;-60
2023/01/27 11:30:03;;;;;;;1.92;1.02;;;;;;;;;;5059954;28;20029;-60
2023/01/27 11:32:50;;;;;;;5.10;1.30;;;;;;;;;;5060451;28;20040;-60
2023/01/27 11:35:16;;;;;;;3.83;1.13;;;;;;;;;;5062763;28;20405;-60
2023/01/27 11:37:42;;;;;;;4.30;1.20;;;;;;;;;;5062507;28;20041;-60
2023/01/27 11:40:23;;;;;;;3.85;1.30;;;;;;;;;;5076566;28;20025;-60
2023/01/27 11:42:50;;;;;;;2.65;1.15;;;;;;;;;;5062619;28;20034;-60
2023/01/27 11:45:18;;;;;;;3.22;1.02;;;;;;;;;;5063310;28;20021;-60
2023/01/27 11:47:45;;;;;;;2.45;0.93;;;;;;;;;;5068222;28;20024;-60
2023/01/27 11:50:23;;;;;;;6.28;1.63;;;;;;;;;;5068175;28;20032;-60
2023/01/27 11:52:58;;;;;;;4.38;1.08;;;;;;;;;;5064086;28;20039;-60
2023/01/27 11:55:26;;;;;;;5.90;1.10;;;;;;;;;;5064588;28;20413;-60
2023/01/27 11:58:22;;;;;;;3.15;1.00;;;;;;;;;;5066172;28;20020;-60
2023/01/27 12:00:54;;;;;;;4.80;0.98;;;;;;;;;;5057296;28;20501;-60
2023/01/27 12:03:53;;;;;;;3.20;1.40;;;;;;;;;;5064748;28;20040;-61
2023/01/27 12:06:28;;;;;;;3.30;1.13;;;;;;;;;;4989871;28;20041;-64
2023/01/27 12:08:54;;;;;;;1.27;0.77;;;;;;;;;;4992398;28;20077;-61
2023/01/27 12:11:27;;;;;;;7.45;1.48;;;;;;;;;;4990563;28;20023;-64
2023/01/27 12:13:54;;;;;;;3.42;1.00;;;;;;;;;;4990574;28;20499;-60
2023/01/27 12:16:20;;;;;;;3.50;0.82;;;;;;;;;;5001132;28;20057;-60
2023/01/27 12:18:48;;;;;;;2.13;0.90;;;;;;;;;;4998675;28;20585;-60
2023/01/27 12:21:15;;;;;;;1.55;1.02;;;;;;;;;;4997091;28;20092;-60
2023/01/27 12:23:48;;;;;;;1.52;0.80;;;;;;;;;;4998805;28;20422;-60
2023/01/27 12:26:14;;;;;;;5.45;0.93;;;;;;;;;;4994860;28;20088;-60
2023/01/27 12:28:53;;;;;;;2.42;1.02;;;;;;;;;;4996052;28;20065;-60
2023/01/27 12:31:43;;;;;;;3.17;1.00;;;;;;;;;;5000698;28;20092;-60
2023/01/27 12:34:22;;;;;;;5.60;1.33;;;;;;;;;;4993457;28;20039;-60
2023/01/27 12:36:49;;;;;;;4.63;1.17;;;;;;;;;;4997387;28;20050;-60
2023/01/27 12:39:27;;;;;;;2.83;1.25;;;;;;;;;;4996904;28;20031;-60
2023/01/27 12:41:53;;;;;;;10.10;1.48;;;;;;;;;;5029282;28;20040;-60
2023/01/27 12:44:24;;;;;;;6.05;1.02;;;;;;;;;;5068635;28;20058;-60
2023/01/27 12:47:01;;;;;;;5.13;1.15;;;;;;;;;;5065821;28;20367;-60
2023/01/27 12:49:36;;;;;;;2.75;0.90;;;;;;;;;;5059014;28;20497;-60
2023/01/27 12:52:04;;;;;;;3.33;1.02;;;;;;;;;;5065448;28;20033;-60
2023/01/27 12:54:32;;;;;;;2.08;0.95;;;;;;;;;;5065115;28;20024;-60
2023/01/27 12:57:03;;;;;;;4.25;1.13;;;;;;;;;;5067754;28;20028;-60
2023/01/27 12:59:29;;;;;;;5.03;1.40;;;;;;;;;;5064015;28;20078;-60
2023/01/27 13:02:10;;;;;;;3.25;1.50;;;;;;;;;;5062034;28;21166;-60
2023/01/27 13:04:37;;;;;;;6.60;1.60;;;;;;;;;;5060339;28;20036;-60
2023/01/27 13:07:08;;;;;;;4.20;1.48;;;;;;;;;;5059845;28;20131;-60
2023/01/27 13:09:53;;;;;;;4.13;1.30;;;;;;;;;;5058120;28;20489;-60
2023/01/27 13:12:20;;;;;;;4.50;2.08;;;;;;;;;;5057858;28;20028;-60
2023/01/27 13:14:50;;;;;;;3.70;1.20;;;;;;;;;;5059237;28;20024;-60
2023/01/27 13:17:27;;;;;;;4.65;0.80;;;;;;;;;;5059046;28;20294;-60
2023/01/27 13:19:55;;;;;;;3.63;0.77;;;;;;;;;;5058145;28;20071;-60
2023/01/27 13:22:23;;;;;;;2.72;1.40;;;;;;;;;;5060197;28;20035;-60
2023/01/27 13:24:52;;;;;;;4.30;1.20;;;;;;;;;;5061603;28;20044;-60
2023/01/27 13:27:19;;;;;;;5.25;1.77;;;;;;;;;;5058841;28;20056;-60
2023/01/27 13:29:59;;;;;;;4.53;1.00;;;;;;;;;;5058841;28;20047;-60
2023/01/27 13:32:27;;;;;;;3.47;1.25;;;;;;;;;;5060397;28;20032;-60
2023/01/27 13:35:12;;;;;;;4.10;1.75;;;;;;;;;;5059509;28;20666;-60
2023/01/27 13:37:44;;;;;;;7.63;1.90;;;;;;;;;;5061379;28;20051;-60
2023/01/27 13:40:29;;;;;;;5.20;1.98;;;;;;;;;;5058047;28;20098;-60
2023/01/27 13:43:15;;;;;;;6.40;1.65;;;;;;;;;;5059075;28;23408;-60
2023/01/27 13:45:41;;;;;;;4.30;1.42;;;;;;;;;;5060578;28;20615;-60
2023/01/27 13:48:26;;;;;;;6.13;1.23;;;;;;;;;;5061085;28;20036;-60
2023/01/27 13:50:57;;;;;;;3.15;1.25;;;;;;;;;;5064289;28;20025;-60
2023/01/27 13:53:24;;;;;;;3.97;0.90;;;;;;;;;;5064671;28;20028;-60
2023/01/27 13:56:08;;;;;;;2.15;0.77;;;;;;;;;;5066682;28;20455;-60
2023/01/27 13:59:00;;;;;;;0.98;0.80;;;;;;;;;;5066626;28;20032;-60
2023/01/27 14:01:32;;;;;;;2.17;1.00;;;;;;;;;;5031728;28;20053;-60
2023/01/27 14:04:01;;;;;;;2.38;1.08;;;;;;;;;;5038674;28;20037;-60
2023/01/27 14:06:27;;;;;;;3.63;1.17;;;;;;;;;;5035331;28;20044;-60
2023/01/27 14:08:58;;;;;;;2.03;0.90;;;;;;;;;;5030882;28;20025;-60
2023/01/27 14:11:42;;;;;;;5.95;1.45;;;;;;;;;;5031670;28;20040;-60
2023/01/27 14:14:08;;;;;;;2.15;0.77;;;;;;;;;;5036395;28;20092;-60
2023/01/27 14:16:53;;;;;;;4.78;1.10;;;;;;;;;;5034553;28;20170;-60
2023/01/27 14:19:37;;;;;;;3.05;1.08;;;;;;;;;;5038588;28;20646;-60
2023/01/27 14:22:04;;;;;;;4.68;1.05;;;;;;;;;;5035599;28;20513;-60
2023/01/27 14:24:38;;;;;;;8.52;1.33;;;;;;;;;;5035068;28;20029;-60
2023/01/27 14:27:07;;;;;;;8.13;1.38;;;;;;;;;;5035537;28;20029;-60
2023/01/27 14:29:52;;;;;;;4.00;1.58;;;;;;;;;;5029899;28;20063;-60
2023/01/27 14:32:19;;;;;;;10.73;1.70;;;;;;;;;;5031897;28;20103;-60
2023/01/27 14:34:47;;;;;;;5.68;2.05;;;;;;;;;;5021426;28;20255;-60
2023/01/27 14:37:26;;;;;;;3.88;1.20;;;;;;;;;;5028449;28;20132;-60
2023/01/27 14:39:56;;;;;;;4.03;1.42;;;;;;;;;;5062593;28;20024;-60
2023/01/27 14:42:42;;;;;;;1.70;0.95;;;;;;;;;;5065798;28;20051;-60
2023/01/27 14:45:18;;;;;;;8.23;1.40;;;;;;;;;;5068608;28;20024;-60
2023/01/27 14:47:54;;;;;;;4.78;1.30;;;;;;;;;;5069258;28;20032;-60
2023/01/27 14:50:20;;;;;;;2.92;0.93;;;;;;;;;;5069444;28;20028;-60
2023/01/27 14:52:58;;;;;;;1.48;1.02;;;;;;;;;;5062550;28;20074;-60
2023/01/27 14:55:30;;;;;;;4.30;0.95;;;;;;;;;;5068231;28;20059;-60
2023/01/27 14:58:11;;;;;;;3.63;1.10;;;;;;;;;;5065726;28;20027;-60
2023/01/27 15:00:43;;;;;;;2.97;0.93;;;;;;;;;;5067779;28;20078;-60
2023/01/27 15:03:36;;;;;;;2.58;1.05;;;;;;;;;;5067432;28;20363;-60
2023/01/27 15:06:05;;;;;;;1.80;1.47;;;;;;;;;;5066463;28;20070;-60
2023/01/27 15:08:49;;;;;;;4.25;0.90;;;;;;;;;;5070389;28;20054;-60
2023/01/27 15:11:27;;;;;;;4.65;1.33;;;;;;;;;;5067140;28;20029;-60
2023/01/27 15:13:56;;;;;;;3.92;1.20;;;;;;;;;;5067521;28;20039;-60
2023/01/27 15:16:30;;;;;;;3.22;0.98;;;;;;;;;;5069765;28;20028;-60
2023/01/27 15:19:06;;;;;;;4.88;1.10;;;;;;;;;;5067951;28;20048;-60
2023/01/27 15:21:32;;;;;;;2.08;1.10;;;;;;;;;;5059995;28;20032;-60
2023/01/27 15:24:01;;;;;;;4.30;0.93;;;;;;;;;;5068313;28;20024;-60
2023/01/27 15:26:28;;;;;;;4.63;1.27;;;;;;;;;;5066745;28;20177;-60